Terminal Aerodrome Forecast
Issued by NWS

Home | Current Version | Previous Version | Text Only | Print | Product List | Glossary Off
Versions: 1 2 3 4 5 6 7 8 9 10 11 12 13 14 15 16 17 18 19 20 21 22 23 24 25 26

000
FTUS43 KGRB 241600 AAC
TAFMTW
TAF AMD
KMTW 241636Z 2417/2512 01007KT 3SM BR BKN005
      TEMPO 2417/2418 1SM -DZ BR OVC003
     FM241800 01010G15KT 4SM BR OVC012
     FM242000 36011G21KT 6SM -RASN OVC015
     FM242300 35011G21KT 5SM -SN SCT012 OVC020
     FM250300 29013KT P6SM OVC025=

USA.gov is the U.S. government's official web portal to all federal, state and local government web resources and services.